sensor_id;sensor_type;location;lat;lon;timestamp;pressure;altitude;pressure_sealevel;temperature;humidity
19748;BME280;10032;51.386;12.516;2023-03-20T00:01:22;100229.88;;;11.50;100.00
19748;BME280;10032;51.386;12.516;2023-03-20T00:03:49;100222.81;;;11.49;100.00
19748;BME280;10032;51.386;12.516;2023-03-20T00:06:20;100232.03;;;11.48;100.00
19748;BME280;10032;51.386;12.516;2023-03-20T00:08:47;100226.63;;;11.48;100.00
19748;BME280;10032;51.386;12.516;2023-03-20T00:11:27;100226.63;;;11.48;100.00
19748;BME280;10032;51.386;12.516;2023-03-20T00:13:59;100232.59;;;11.50;100.00
19748;BME280;10032;51.386;12.516;2023-03-20T00:16:29;100233.16;;;11.52;100.00
19748;BME280;10032;51.386;12.516;2023-03-20T00:18:56;100228.81;;;11.51;100.00
19748;BME280;10032;51.386;12.516;2023-03-20T00:21:23;100233.16;;;11.52;100.00
19748;BME280;10032;51.386;12.516;2023-03-20T00:23:48;100227.22;;;11.55;100.00
19748;BME280;10032;51.386;12.516;2023-03-20T00:26:15;100236.19;;;11.56;100.00
19748;BME280;10032;51.386;12.516;2023-03-20T00:28:46;100229.41;;;11.58;100.00
19748;BME280;10032;51.386;12.516;2023-03-20T00:31:27;100229.41;;;11.58;100.00
19748;BME280;10032;51.386;12.516;2023-03-20T00:34:15;100233.06;;;11.64;100.00
19748;BME280;10032;51.386;12.516;2023-03-20T00:36:40;100224.09;;;11.63;100.00
19748;BME280;10032;51.386;12.516;2023-03-20T00:39:05;100227.38;;;11.65;100.00
19748;BME280;10032;51.386;12.516;2023-03-20T00:46:40;100223.59;;;11.66;100.00
19748;BME280;10032;51.386;12.516;2023-03-20T00:49:09;100224.66;;;11.65;100.00
19748;BME280;10032;51.386;12.516;2023-03-20T00:51:35;100222.19;;;11.64;100.00
19748;BME280;10032;51.386;12.516;2023-03-20T00:54:00;100222.97;;;11.59;100.00
19748;BME280;10032;51.386;12.516;2023-03-20T00:58:59;100222.31;;;11.52;100.00
19748;BME280;10032;51.386;12.516;2023-03-20T01:01:25;100227.94;;;11.46;100.00
19748;BME280;10032;51.386;12.516;2023-03-20T01:03:51;100223.25;;;11.41;100.00
19748;BME280;10032;51.386;12.516;2023-03-20T01:06:17;100230.53;;;11.36;100.00
19748;BME280;10032;51.386;12.516;2023-03-20T01:08:43;100224.72;;;11.27;100.00
19748;BME280;10032;51.386;12.516;2023-03-20T01:11:09;100227.31;;;11.17;100.00
19748;BME280;10032;51.386;12.516;2023-03-20T01:13:37;100232.16;;;11.15;100.00
19748;BME280;10032;51.386;12.516;2023-03-20T01:16:02;100229.72;;;11.14;100.00
19748;BME280;10032;51.386;12.516;2023-03-20T01:18:28;100229.38;;;11.10;100.00
19748;BME280;10032;51.386;12.516;2023-03-20T01:20:53;100235.00;;;11.04;100.00
19748;BME280;10032;51.386;12.516;2023-03-20T01:23:20;100235.66;;;10.94;100.00
19748;BME280;10032;51.386;12.516;2023-03-20T01:25:47;100230.75;;;10.91;100.00
19748;BME280;10032;51.386;12.516;2023-03-20T01:28:21;100233.69;;;10.90;100.00
19748;BME280;10032;51.386;12.516;2023-03-20T01:30:48;100220.97;;;10.90;100.00
19748;BME280;10032;51.386;12.516;2023-03-20T01:33:19;100233.44;;;10.91;100.00
19748;BME280;10032;51.386;12.516;2023-03-20T01:35:46;100235.31;;;10.91;100.00
19748;BME280;10032;51.386;12.516;2023-03-20T01:38:23;100242.72;;;10.95;100.00
19748;BME280;10032;51.386;12.516;2023-03-20T01:41:05;100239.75;;;10.97;100.00
19748;BME280;10032;51.386;12.516;2023-03-20T01:43:32;100234.00;;;10.93;100.00
19748;BME280;10032;51.386;12.516;2023-03-20T01:51:22;100228.09;;;10.96;100.00
19748;BME280;10032;51.386;12.516;2023-03-20T01:56:36;100242.16;;;10.93;100.00
19748;BME280;10032;51.386;12.516;2023-03-20T01:59:16;100239.59;;;10.87;100.00
19748;BME280;10032;51.386;12.516;2023-03-20T02:01:45;100238.72;;;10.81;100.00
19748;BME280;10032;51.386;12.516;2023-03-20T02:04:12;100249.25;;;10.78;100.00
19748;BME280;10032;51.386;12.516;2023-03-20T02:06:39;100242.91;;;10.72;100.00
19748;BME280;10032;51.386;12.516;2023-03-20T02:09:06;100244.81;;;10.72;100.00
19748;BME280;10032;51.386;12.516;2023-03-20T02:11:32;100248.25;;;10.67;100.00
19748;BME280;10032;51.386;12.516;2023-03-20T02:14:00;100244.38;;;10.63;100.00
19748;BME280;10032;51.386;12.516;2023-03-20T02:16:26;100239.47;;;10.60;100.00
19748;BME280;10032;51.386;12.516;2023-03-20T02:18:53;100236.63;;;10.50;100.00
19748;BME280;10032;51.386;12.516;2023-03-20T02:30:14;100246.56;;;10.28;100.00
19748;BME280;10032;51.386;12.516;2023-03-20T02:35:26;100235.53;;;10.18;100.00
19748;BME280;10032;51.386;12.516;2023-03-20T02:38:06;100230.59;;;10.15;100.00
19748;BME280;10032;51.386;12.516;2023-03-20T02:41:03;100232.31;;;10.05;100.00
19748;BME280;10032;51.386;12.516;2023-03-20T02:43:43;100229.16;;;9.96;100.00
19748;BME280;10032;51.386;12.516;2023-03-20T02:51:27;100235.28;;;9.75;100.00
19748;BME280;10032;51.386;12.516;2023-03-20T02:54:05;100234.56;;;9.68;100.00
19748;BME280;10032;51.386;12.516;2023-03-20T02:56:53;100239.19;;;9.68;100.00
19748;BME280;10032;51.386;12.516;2023-03-20T02:59:45;100234.00;;;9.66;100.00
19748;BME280;10032;51.386;12.516;2023-03-20T03:02:21;100231.31;;;9.66;100.00
19748;BME280;10032;51.386;12.516;2023-03-20T03:04:54;100232.94;;;9.67;100.00
19748;BME280;10032;51.386;12.516;2023-03-20T03:07:23;100227.53;;;9.67;100.00
19748;BME280;10032;51.386;12.516;2023-03-20T03:10:12;100221.88;;;9.69;100.00
19748;BME280;10032;51.386;12.516;2023-03-20T03:12:43;100227.88;;;9.71;100.00
19748;BME280;10032;51.386;12.516;2023-03-20T03:15:31;100228.13;;;9.69;100.00
19748;BME280;10032;51.386;12.516;2023-03-20T03:17:59;100226.47;;;9.68;100.00
19748;BME280;10032;51.386;12.516;2023-03-20T03:20:31;100218.34;;;9.68;100.00
19748;BME280;10032;51.386;12.516;2023-03-20T03:22:59;100225.66;;;9.68;100.00
19748;BME280;10032;51.386;12.516;2023-03-20T03:25:29;100230.00;;;9.69;100.00
19748;BME280;10032;51.386;12.516;2023-03-20T03:28:12;100221.06;;;9.68;100.00
19748;BME280;10032;51.386;12.516;2023-03-20T03:30:41;100221.88;;;9.69;100.00
19748;BME280;10032;51.386;12.516;2023-03-20T03:35:36;100226.22;;;9.70;100.00
19748;BME280;10032;51.386;12.516;2023-03-20T03:40:55;100235.19;;;9.70;100.00
19748;BME280;10032;51.386;12.516;2023-03-20T03:46:00;100239.53;;;9.71;100.00
19748;BME280;10032;51.386;12.516;2023-03-20T03:48:32;100233.63;;;9.74;100.00
19748;BME280;10032;51.386;12.516;2023-03-20T03:51:03;100238.06;;;9.80;100.00
19748;BME280;10032;51.386;12.516;2023-03-20T03:53:34;100243.47;;;9.80;100.00
19748;BME280;10032;51.386;12.516;2023-03-20T03:56:04;100243.25;;;9.82;100.00
19748;BME280;10032;51.386;12.516;2023-03-20T03:58:41;100242.28;;;9.88;100.00
19748;BME280;10032;51.386;12.516;2023-03-20T04:01:09;100245.44;;;9.85;100.00
19748;BME280;10032;51.386;12.516;2023-03-20T04:03:41;100251.19;;;9.88;100.00
19748;BME280;10032;51.386;12.516;2023-03-20T04:06:10;100245.31;;;9.91;100.00
19748;BME280;10032;51.386;12.516;2023-03-20T04:08:39;100250.22;;;9.94;100.00
19748;BME280;10032;51.386;12.516;2023-03-20T04:11:04;100243.25;;;9.98;100.00
19748;BME280;10032;51.386;12.516;2023-03-20T04:13:29;100246.06;;;10.03;100.00
19748;BME280;10032;51.386;12.516;2023-03-20T04:15:55;100243.25;;;10.10;100.00
19748;BME280;10032;51.386;12.516;2023-03-20T04:18:21;100247.91;;;10.14;100.00
19748;BME280;10032;51.386;12.516;2023-03-20T04:20:47;100246.38;;;10.18;100.00
19748;BME280;10032;51.386;12.516;2023-03-20T04:23:13;100249.16;;;10.23;100.00
19748;BME280;10032;51.386;12.516;2023-03-20T04:25:39;100250.06;;;10.29;100.00
19748;BME280;10032;51.386;12.516;2023-03-20T04:28:05;100256.63;;;10.33;100.00
19748;BME280;10032;51.386;12.516;2023-03-20T04:30:30;100260.75;;;10.35;100.00
19748;BME280;10032;51.386;12.516;2023-03-20T04:32:56;100268.88;;;10.35;100.00
19748;BME280;10032;51.386;12.516;2023-03-20T04:35:21;100268.88;;;10.35;100.00
19748;BME280;10032;51.386;12.516;2023-03-20T04:37:47;100274.59;;;10.39;100.00
19748;BME280;10032;51.386;12.516;2023-03-20T04:40:12;100271.19;;;10.43;100.00
19748;BME280;10032;51.386;12.516;2023-03-20T04:42:38;100269.59;;;10.47;100.00
19748;BME280;10032;51.386;12.516;2023-03-20T04:45:04;100269.97;;;10.51;100.00
19748;BME280;10032;51.386;12.516;2023-03-20T04:47:29;100274.53;;;10.50;100.00
19748;BME280;10032;51.386;12.516;2023-03-20T04:49:55;100285.94;;;10.52;100.00
19748;BME280;10032;51.386;12.516;2023-03-20T04:52:20;100278.31;;;10.49;100.00
19748;BME280;10032;51.386;12.516;2023-03-20T04:54:45;100278.09;;;10.51;100.00
19748;BME280;10032;51.386;12.516;2023-03-20T04:57:11;100287.00;;;10.51;100.00
19748;BME280;10032;51.386;12.516;2023-03-20T04:59:36;100278.88;;;10.51;100.00
19748;BME280;10032;51.386;12.516;2023-03-20T05:02:02;100289.72;;;10.51;100.00
19748;BME280;10032;51.386;12.516;2023-03-20T05:04:27;100286.53;;;10.54;100.00
19748;BME280;10032;51.386;12.516;2023-03-20T05:06:52;100290.03;;;10.55;100.00
19748;BME280;10032;51.386;12.516;2023-03-20T05:09:18;100286.03;;;10.57;100.00
19748;BME280;10032;51.386;12.516;2023-03-20T05:11:43;100284.47;;;10.61;100.00
19748;BME280;10032;51.386;12.516;2023-03-20T05:14:09;100293.66;;;10.60;100.00
19748;BME280;10032;51.386;12.516;2023-03-20T05:16:36;100298.56;;;10.63;100.00
19748;BME280;10032;51.386;12.516;2023-03-20T05:19:01;100297.53;;;10.64;100.00
19748;BME280;10032;51.386;12.516;2023-03-20T05:21:27;100287.81;;;10.68;100.00
19748;BME280;10032;51.386;12.516;2023-03-20T05:23:52;100288.19;;;10.72;100.00
19748;BME280;10032;51.386;12.516;2023-03-20T05:26:18;100297.13;;;10.72;100.00
19748;BME280;10032;51.386;12.516;2023-03-20T05:28:43;100296.63;;;10.75;100.00
19748;BME280;10032;51.386;12.516;2023-03-20T05:31:08;100295.31;;;10.78;100.00
19748;BME280;10032;51.386;12.516;2023-03-20T05:33:34;100295.88;;;10.80;100.00
19748;BME280;10032;51.386;12.516;2023-03-20T05:36:00;100298.09;;;10.83;100.00
19748;BME280;10032;51.386;12.516;2023-03-20T05:38:25;100298.91;;;10.83;100.00
19748;BME280;10032;51.386;12.516;2023-03-20T05:40:58;100307.63;;;10.85;100.00
19748;BME280;10032;51.386;12.516;2023-03-20T05:43:25;100305.47;;;10.87;100.00
19748;BME280;10032;51.386;12.516;2023-03-20T05:45:52;100295.47;;;10.88;100.00
19748;BME280;10032;51.386;12.516;2023-03-20T05:48:17;100303.34;;;10.89;100.00
19748;BME280;10032;51.386;12.516;2023-03-20T05:50:43;100308.28;;;10.92;100.00
19748;BME280;10032;51.386;12.516;2023-03-20T05:53:09;100316.50;;;10.97;100.00
19748;BME280;10032;51.386;12.516;2023-03-20T05:55:34;100311.63;;;10.99;100.00
19748;BME280;10032;51.386;12.516;2023-03-20T05:58:00;100308.44;;;11.02;100.00
19748;BME280;10032;51.386;12.516;2023-03-20T06:00:25;100313.34;;;11.05;100.00
19748;BME280;10032;51.386;12.516;2023-03-20T06:02:51;100317.19;;;11.09;100.00
19748;BME280;10032;51.386;12.516;2023-03-20T06:05:16;100317.78;;;11.11;100.00
19748;BME280;10032;51.386;12.516;2023-03-20T06:07:42;100317.28;;;11.14;100.00
19748;BME280;10032;51.386;12.516;2023-03-20T06:10:08;100321.63;;;11.15;100.00
19748;BME280;10032;51.386;12.516;2023-03-20T06:12:34;100323.34;;;11.21;100.00
19748;BME280;10032;51.386;12.516;2023-03-20T06:14:59;100330.44;;;11.22;100.00
19748;BME280;10032;51.386;12.516;2023-03-20T06:17:25;100324.50;;;11.25;100.00
19748;BME280;10032;51.386;12.516;2023-03-20T06:19:50;100332.13;;;11.28;100.00
19748;BME280;10032;51.386;12.516;2023-03-20T06:22:16;100331.38;;;11.33;100.00
19748;BME280;10032;51.386;12.516;2023-03-20T06:24:41;100336.00;;;11.32;100.00
19748;BME280;10032;51.386;12.516;2023-03-20T06:27:07;100332.53;;;11.37;100.00
19748;BME280;10032;51.386;12.516;2023-03-20T06:29:33;100335.56;;;11.40;100.00
19748;BME280;10032;51.386;12.516;2023-03-20T06:31:58;100341.53;;;11.42;100.00
19748;BME280;10032;51.386;12.516;2023-03-20T06:34:24;100338.28;;;11.40;100.00
19748;BME280;10032;51.386;12.516;2023-03-20T06:36:50;100344.22;;;11.37;100.00
19748;BME280;10032;51.386;12.516;2023-03-20T06:39:15;100335.31;;;11.42;100.00
19748;BME280;10032;51.386;12.516;2023-03-20T06:41:41;100345.91;;;11.43;100.00
19748;BME280;10032;51.386;12.516;2023-03-20T06:44:06;100342.94;;;11.45;100.00
19748;BME280;10032;51.386;12.516;2023-03-20T06:46:31;100344.59;;;11.46;100.00
19748;BME280;10032;51.386;12.516;2023-03-20T06:48:57;100352.41;;;11.42;100.00
19748;BME280;10032;51.386;12.516;2023-03-20T06:51:22;100346.97;;;11.42;100.00
19748;BME280;10032;51.386;12.516;2023-03-20T06:53:48;100347.50;;;11.39;100.00
19748;BME280;10032;51.386;12.516;2023-03-20T06:56:13;100349.63;;;11.37;100.00
19748;BME280;10032;51.386;12.516;2023-03-20T06:58:38;100353.41;;;11.36;100.00
19748;BME280;10032;51.386;12.516;2023-03-20T07:01:12;100354.47;;;11.35;100.00
19748;BME280;10032;51.386;12.516;2023-03-20T07:03:38;100355.88;;;11.38;100.00
19748;BME280;10032;51.386;12.516;2023-03-20T07:06:05;100355.56;;;11.34;100.00
19748;BME280;10032;51.386;12.516;2023-03-20T07:08:31;100366.31;;;11.29;100.00
19748;BME280;10032;51.386;12.516;2023-03-20T07:10:57;100363.13;;;11.32;100.00
19748;BME280;10032;51.386;12.516;2023-03-20T07:13:22;100365.25;;;11.30;100.00
19748;BME280;10032;51.386;12.516;2023-03-20T07:15:48;100375.09;;;11.36;100.00
19748;BME280;10032;51.386;12.516;2023-03-20T07:18:14;100374.63;;;11.39;100.00
19748;BME280;10032;51.386;12.516;2023-03-20T07:20:39;100372.97;;;11.38;100.00
19748;BME280;10032;51.386;12.516;2023-03-20T07:23:04;100375.41;;;11.40;100.00
19748;BME280;10032;51.386;12.516;2023-03-20T07:25:30;100376.81;;;11.42;100.00
19748;BME280;10032;51.386;12.516;2023-03-20T07:27:56;100379.28;;;11.44;100.00
19748;BME280;10032;51.386;12.516;2023-03-20T07:30:22;100383.63;;;11.45;100.00
19748;BME280;10032;51.386;12.516;2023-03-20T07:32:47;100379.59;;;11.47;100.00
19748;BME280;10032;51.386;12.516;2023-03-20T07:35:13;100382.38;;;11.52;100.00
19748;BME280;10032;51.386;12.516;2023-03-20T07:37:38;100384.63;;;11.55;100.00
19748;BME280;10032;51.386;12.516;2023-03-20T07:40:04;100379.75;;;11.57;100.00
19748;BME280;10032;51.386;12.516;2023-03-20T07:42:30;100386.00;;;11.58;100.00
19748;BME280;10032;51.386;12.516;2023-03-20T07:44:55;100387.44;;;11.60;100.00
19748;BME280;10032;51.386;12.516;2023-03-20T07:47:21;100388.00;;;11.62;100.00
19748;BME280;10032;51.386;12.516;2023-03-20T07:49:46;100387.44;;;11.60;100.00
19748;BME280;10032;51.386;12.516;2023-03-20T07:52:12;100383.97;;;11.65;100.00
19748;BME280;10032;51.386;12.516;2023-03-20T07:54:37;100384.63;;;11.72;100.00
19748;BME280;10032;51.386;12.516;2023-03-20T07:57:03;100381.94;;;11.77;100.00
19748;BME280;10032;51.386;12.516;2023-03-20T07:59:30;100385.56;;;11.82;100.00
19748;BME280;10032;51.386;12.516;2023-03-20T08:01:55;100372.66;;;11.94;100.00
19748;BME280;10032;51.386;12.516;2023-03-20T08:04:21;100376.47;;;12.15;100.00
19748;BME280;10032;51.386;12.516;2023-03-20T08:06:47;100374.28;;;12.38;100.00
19748;BME280;10032;51.386;12.516;2023-03-20T08:09:13;100372.13;;;12.40;100.00
19748;BME280;10032;51.386;12.516;2023-03-20T08:11:38;100376.16;;;12.38;100.00
19748;BME280;10032;51.386;12.516;2023-03-20T08:14:04;100375.31;;;12.32;100.00
19748;BME280;10032;51.386;12.516;2023-03-20T08:16:30;100371.50;;;12.33;100.00
19748;BME280;10032;51.386;12.516;2023-03-20T08:18:55;100383.50;;;12.37;100.00
19748;BME280;10032;51.386;12.516;2023-03-20T08:21:26;100374.28;;;12.38;100.00
19748;BME280;10032;51.386;12.516;2023-03-20T08:23:52;100376.16;;;12.38;100.00
19748;BME280;10032;51.386;12.516;2023-03-20T08:26:17;100380.31;;;12.45;100.00
19748;BME280;10032;51.386;12.516;2023-03-20T08:28:42;100384.13;;;12.44;100.00
19748;BME280;10032;51.386;12.516;2023-03-20T08:31:08;100381.34;;;12.39;100.00
19748;BME280;10032;51.386;12.516;2023-03-20T08:33:34;100385.16;;;12.38;100.00
19748;BME280;10032;51.386;12.516;2023-03-20T08:35:59;100381.34;;;12.39;100.00
19748;BME280;10032;51.386;12.516;2023-03-20T08:38:25;100388.91;;;12.37;100.00
19748;BME280;10032;51.386;12.516;2023-03-20T08:40:50;100386.72;;;12.34;100.00
19748;BME280;10032;51.386;12.516;2023-03-20T08:43:16;100389.19;;;12.36;100.00
19748;BME280;10032;51.386;12.516;2023-03-20T08:45:42;100392.22;;;12.39;100.00
19748;BME280;10032;51.386;12.516;2023-03-20T08:48:08;100387.88;;;12.38;100.00
19748;BME280;10032;51.386;12.516;2023-03-20T08:50:34;100393.81;;;12.35;100.00
19748;BME280;10032;51.386;12.516;2023-03-20T08:52:59;100404.63;;;12.30;100.00
19748;BME280;10032;51.386;12.516;2023-03-20T08:55:25;100400.50;;;12.28;100.00
19748;BME280;10032;51.386;12.516;2023-03-20T08:57:51;100407.91;;;12.32;100.00
19748;BME280;10032;51.386;12.516;2023-03-20T09:00:18;100410.63;;;12.32;100.00
19748;BME280;10032;51.386;12.516;2023-03-20T09:02:44;100405.69;;;12.29;100.00
19748;BME280;10032;51.386;12.516;2023-03-20T09:05:10;100406.78;;;12.28;100.00
19748;BME280;10032;51.386;12.516;2023-03-20T09:07:36;100405.81;;;12.39;100.00
19748;BME280;10032;51.386;12.516;2023-03-20T09:10:03;100422.47;;;12.48;100.00
19748;BME280;10032;51.386;12.516;2023-03-20T09:12:28;100417.03;;;12.48;100.00
19748;BME280;10032;51.386;12.516;2023-03-20T09:14:56;100418.69;;;12.49;100.00
19748;BME280;10032;51.386;12.516;2023-03-20T09:17:21;100425.50;;;12.51;100.00
19748;BME280;10032;51.386;12.516;2023-03-20T09:19:46;100420.63;;;12.53;100.00
19748;BME280;10032;51.386;12.516;2023-03-20T09:22:13;100429.53;;;12.49;100.00
19748;BME280;10032;51.386;12.516;2023-03-20T09:24:38;100425.44;;;12.46;100.00
19748;BME280;10032;51.386;12.516;2023-03-20T09:27:04;100434.22;;;12.53;100.00
19748;BME280;10032;51.386;12.516;2023-03-20T09:29:29;100418.88;;;12.42;100.00
19748;BME280;10032;51.386;12.516;2023-03-20T09:31:55;100435.13;;;12.37;100.00
19748;BME280;10032;51.386;12.516;2023-03-20T09:34:20;100436.50;;;12.40;100.00
19748;BME280;10032;51.386;12.516;2023-03-20T09:36:46;100435.16;;;12.42;100.00
19748;BME280;10032;51.386;12.516;2023-03-20T09:39:12;100438.34;;;12.34;100.00
19748;BME280;10032;51.386;12.516;2023-03-20T09:41:38;100439.69;;;12.32;100.00
19748;BME280;10032;51.386;12.516;2023-03-20T09:44:13;100436.34;;;12.25;100.00
19748;BME280;10032;51.386;12.516;2023-03-20T09:46:52;100430.31;;;12.23;100.00
19748;BME280;10032;51.386;12.516;2023-03-20T09:52:41;100434.75;;;12.29;100.00
19748;BME280;10032;51.386;12.516;2023-03-20T09:55:13;100433.41;;;12.31;100.00
19748;BME280;10032;51.386;12.516;2023-03-20T09:57:42;100442.34;;;12.27;100.00
19748;BME280;10032;51.386;12.516;2023-03-20T10:00:21;100440.94;;;12.24;100.00
19748;BME280;10032;51.386;12.516;2023-03-20T10:02:51;100436.06;;;12.26;100.00
19748;BME280;10032;51.386;12.516;2023-03-20T10:05:43;100445.44;;;12.35;100.00
19748;BME280;10032;51.386;12.516;2023-03-20T10:08:13;100442.72;;;12.35;100.00
19748;BME280;10032;51.386;12.516;2023-03-20T10:14:30;100439.81;;;12.42;100.00
19748;BME280;10032;51.386;12.516;2023-03-20T10:22:25;100433.16;;;12.54;100.00
19748;BME280;10032;51.386;12.516;2023-03-20T10:27:43;100431.94;;;12.67;100.00
19748;BME280;10032;51.386;12.516;2023-03-20T10:35:48;100429.47;;;12.65;100.00
19748;BME280;10032;51.386;12.516;2023-03-20T10:38:29;100431.28;;;12.60;100.00
19748;BME280;10032;51.386;12.516;2023-03-20T10:40:58;100440.03;;;12.62;100.00
19748;BME280;10032;51.386;12.516;2023-03-20T10:43:34;100438.66;;;12.59;100.00
19748;BME280;10032;51.386;12.516;2023-03-20T10:46:01;100435.41;;;12.62;100.00
19748;BME280;10032;51.386;12.516;2023-03-20T10:51:01;100434.38;;;12.68;100.00
19748;BME280;10032;51.386;12.516;2023-03-20T10:53:29;100425.72;;;12.71;100.00
19748;BME280;10032;51.386;12.516;2023-03-20T10:55:59;100423.31;;;12.75;100.00
19748;BME280;10032;51.386;12.516;2023-03-20T10:58:28;100414.91;;;12.76;100.00
19748;BME280;10032;51.386;12.516;2023-03-20T11:00:57;100421.66;;;12.74;100.00
19748;BME280;10032;51.386;12.516;2023-03-20T11:03:26;100420.84;;;12.73;100.00
19748;BME280;10032;51.386;12.516;2023-03-20T11:08:30;100428.94;;;12.68;100.00
19748;BME280;10032;51.386;12.516;2023-03-20T11:11:00;100423.00;;;12.71;100.00
19748;BME280;10032;51.386;12.516;2023-03-20T11:16:52;100435.41;;;12.62;100.00
19748;BME280;10032;51.386;12.516;2023-03-20T11:18:53;100424.53;;;12.62;100.00
19748;BME280;10032;51.386;12.516;2023-03-20T11:21:24;100421.81;;;12.62;100.00
19748;BME280;10032;51.386;12.516;2023-03-20T11:23:51;100426.38;;;12.57;100.00
19748;BME280;10032;51.386;12.516;2023-03-20T11:26:19;100419.28;;;12.56;100.00
19748;BME280;10032;51.386;12.516;2023-03-20T11:28:55;100424.94;;;12.49;100.00
19748;BME280;10032;51.386;12.516;2023-03-20T11:31:37;100425.50;;;12.51;100.00
19748;BME280;10032;51.386;12.516;2023-03-20T11:36:36;100421.44;;;12.54;100.00
19748;BME280;10032;51.386;12.516;2023-03-20T11:39:29;100423.09;;;12.55;100.00
19748;BME280;10032;51.386;12.516;2023-03-20T11:42:00;100417.66;;;12.55;100.00
19748;BME280;10032;51.386;12.516;2023-03-20T11:44:33;100415.81;;;12.60;100.00
19748;BME280;10032;51.386;12.516;2023-03-20T11:47:05;100415.53;;;12.57;100.00
19748;BME280;10032;51.386;12.516;2023-03-20T11:49:46;100408.22;;;12.62;100.00
19748;BME280;10032;51.386;12.516;2023-03-20T11:52:19;100410.13;;;12.62;100.00
19748;BME280;10032;51.386;12.516;2023-03-20T11:54:47;100409.31;;;12.61;100.00
19748;BME280;10032;51.386;12.516;2023-03-20T11:57:34;100412.03;;;12.61;100.00
19748;BME280;10032;51.386;12.516;2023-03-20T12:00:05;100417.47;;;12.61;100.00
19748;BME280;10032;51.386;12.516;2023-03-20T12:02:34;100405.41;;;12.52;100.00
19748;BME280;10032;51.386;12.516;2023-03-20T12:05:00;100403.31;;;12.59;100.00
19748;BME280;10032;51.386;12.516;2023-03-20T12:07:31;100406.09;;;12.64;100.00
19748;BME280;10032;51.386;12.516;2023-03-20T12:10:10;100402.22;;;12.60;100.00
19748;BME280;10032;51.386;12.516;2023-03-20T12:12:58;100396.50;;;12.57;100.00
19748;BME280;10032;51.386;12.516;2023-03-20T12:15:35;100393.00;;;12.61;100.00
19748;BME280;10032;51.386;12.516;2023-03-20T12:18:14;100389.44;;;12.61;100.00
19748;BME280;10032;51.386;12.516;2023-03-20T12:21:01;100383.41;;;12.80;100.00
19748;BME280;10032;51.386;12.516;2023-03-20T12:23:33;100382.50;;;12.96;100.00
19748;BME280;10032;51.386;12.516;2023-03-20T12:26:05;100381.66;;;12.96;100.00
19748;BME280;10032;51.386;12.516;2023-03-20T12:28:51;100382.53;;;13.01;100.00
19748;BME280;10032;51.386;12.516;2023-03-20T12:31:25;100381.75;;;13.06;100.00
19748;BME280;10032;51.386;12.516;2023-03-20T12:34:19;100376.50;;;12.99;100.00
19748;BME280;10032;51.386;12.516;2023-03-20T12:36:50;100375.72;;;12.99;100.00
19748;BME280;10032;51.386;12.516;2023-03-20T12:39:24;100373.78;;;12.99;100.00
19748;BME280;10032;51.386;12.516;2023-03-20T13:00:51;100362.06;;;13.30;100.00
19748;BME280;10032;51.386;12.516;2023-03-20T13:06:17;100354.44;;;13.32;100.00
19748;BME280;10032;51.386;12.516;2023-03-20T13:14:21;100342.97;;;13.25;100.00
19748;BME280;10032;51.386;12.516;2023-03-20T13:16:57;100334.78;;;13.20;100.00
19748;BME280;10032;51.386;12.516;2023-03-20T13:19:36;100333.97;;;13.20;100.00
19748;BME280;10032;51.386;12.516;2023-03-20T13:36:10;100324.78;;;13.31;100.00
19748;BME280;10032;51.386;12.516;2023-03-20T13:38:47;100325.66;;;13.41;100.00
19748;BME280;10032;51.386;12.516;2023-03-20T13:41:15;100317.56;;;13.56;100.00
19748;BME280;10032;51.386;12.516;2023-03-20T13:43:50;100315.72;;;13.72;100.00
19748;BME280;10032;51.386;12.516;2023-03-20T13:46:27;100304.69;;;13.98;100.00
19748;BME280;10032;51.386;12.516;2023-03-20T13:49:01;100305.25;;;14.15;100.00
19748;BME280;10032;51.386;12.516;2023-03-20T13:51:47;100300.94;;;14.19;100.00
19748;BME280;10032;51.386;12.516;2023-03-20T13:54:36;100298.00;;;14.31;100.00
19748;BME280;10032;51.386;12.516;2023-03-20T13:57:40;100299.34;;;14.43;100.00
19748;BME280;10032;51.386;12.516;2023-03-20T14:03:00;100298.28;;;14.49;100.00
19748;BME280;10032;51.386;12.516;2023-03-20T14:05:35;100290.09;;;14.49;100.00
19748;BME280;10032;51.386;12.516;2023-03-20T14:10:45;100286.56;;;14.54;100.00
19748;BME280;10032;51.386;12.516;2023-03-20T14:13:13;100275.38;;;14.60;100.00
19748;BME280;10032;51.386;12.516;2023-03-20T14:15:55;100275.91;;;14.57;100.00
19748;BME280;10032;51.386;12.516;2023-03-20T14:18:23;100275.91;;;14.57;100.00
19748;BME280;10032;51.386;12.516;2023-03-20T14:21:01;100266.38;;;14.55;100.00
19748;BME280;10032;51.386;12.516;2023-03-20T14:31:36;100268.25;;;14.79;100.00
19748;BME280;10032;51.386;12.516;2023-03-20T14:39:18;100257.34;;;14.84;100.00
19748;BME280;10032;51.386;12.516;2023-03-20T14:42:05;100263.63;;;14.95;100.00
19748;BME280;10032;51.386;12.516;2023-03-20T14:50:02;100263.53;;;15.30;100.00
19748;BME280;10032;51.386;12.516;2023-03-20T14:57:56;100257.53;;;15.43;100.00
19748;BME280;10032;51.386;12.516;2023-03-20T15:00:26;100257.56;;;15.33;100.00
19748;BME280;10032;51.386;12.516;2023-03-20T15:03:15;100261.66;;;15.25;100.00
19748;BME280;10032;51.386;12.516;2023-03-20T15:05:42;100254.56;;;15.24;100.00